createdAt,value
2023-05-17T00:04:00.944Z,13.68
2023-05-17T00:08:13.760Z,13.97
2023-05-17T00:12:26.887Z,13.75
2023-05-17T00:16:39.319Z,14.13
2023-05-17T00:20:51.759Z,13.84
2023-05-17T00:25:08.326Z,13.60
2023-05-17T00:29:20.828Z,13.89
2023-05-17T00:33:33.627Z,13.66
2023-05-17T00:37:48.242Z,13.59
2023-05-17T00:42:02.829Z,13.69
2023-05-17T00:46:16.440Z,13.51
2023-05-17T00:50:29.110Z,13.42
2023-05-17T00:54:41.908Z,13.61
2023-05-17T00:58:54.922Z,13.71
2023-05-17T01:03:08.530Z,13.68
2023-05-17T01:07:21.097Z,13.60
2023-05-17T01:11:53.420Z,13.43
2023-05-17T01:16:11.106Z,13.41
2023-05-17T01:20:32.212Z,13.33
2023-05-17T01:25:16.505Z,13.36
2023-05-17T01:29:30.560Z,13.39
2023-05-17T01:33:43.328Z,13.39
2023-05-17T01:37:56.263Z,13.38
2023-05-17T01:42:18.873Z,13.47
2023-05-17T01:46:41.379Z,13.68
2023-05-17T01:50:57.071Z,13.63
2023-05-17T01:55:18.351Z,13.71
2023-05-17T01:59:32.092Z,13.75
2023-05-17T02:03:48.913Z,13.83
2023-05-17T02:08:02.864Z,13.90
2023-05-17T02:12:15.480Z,13.93
2023-05-17T02:16:34.434Z,14.03
2023-05-17T02:20:47.085Z,14.29
2023-05-17T02:24:59.691Z,14.40
2023-05-17T02:29:12.117Z,14.42
2023-05-17T02:33:24.726Z,14.35
2023-05-17T02:37:37.223Z,14.26
2023-05-17T02:41:50.856Z,14.24
2023-05-17T02:46:03.237Z,14.18
2023-05-17T02:50:15.891Z,14.24
2023-05-17T02:54:28.495Z,14.27
2023-05-17T02:58:41.792Z,14.28
2023-05-17T03:02:54.349Z,14.21
2023-05-17T03:07:07.419Z,14.19
2023-05-17T03:11:20.744Z,14.23
2023-05-17T03:15:33.318Z,14.22
2023-05-17T03:19:46.017Z,14.27
2023-05-17T03:23:59.070Z,14.22
2023-05-17T03:28:11.620Z,14.19
2023-05-17T03:32:24.297Z,14.20
2023-05-17T03:36:39.697Z,14.20
2023-05-17T03:40:53.540Z,14.25
2023-05-17T03:45:06.899Z,14.38
2023-05-17T03:49:19.530Z,14.42
2023-05-17T03:53:51.724Z,14.48
2023-05-17T03:58:05.337Z,14.53
2023-05-17T04:02:18.099Z,14.63
2023-05-17T04:06:30.910Z,14.71
2023-05-17T04:10:43.517Z,14.82
2023-05-17T04:14:56.056Z,15.02
2023-05-17T04:19:09.996Z,15.22
2023-05-17T04:23:22.626Z,15.38
2023-05-17T04:27:35.602Z,15.72
2023-05-17T04:31:51.029Z,15.71
2023-05-17T04:36:04.263Z,15.84
2023-05-17T04:40:18.329Z,15.81
2023-05-17T04:44:32.062Z,15.91
2023-05-17T04:48:44.921Z,16.30
2023-05-17T04:52:57.381Z,16.34
2023-05-17T04:57:09.887Z,16.25
2023-05-17T05:01:43.841Z,16.05
2023-05-17T05:05:56.444Z,15.99
2023-05-17T05:10:09.775Z,15.96
2023-05-17T05:14:25.722Z,16.02
2023-05-17T05:18:38.408Z,16.16
2023-05-17T05:22:51.620Z,16.35
2023-05-17T05:27:07.072Z,16.26
2023-05-17T05:31:21.257Z,15.71
2023-05-17T05:35:37.618Z,15.41
2023-05-17T05:39:50.094Z,15.21
2023-05-17T05:44:02.773Z,15.31
2023-05-17T05:48:15.369Z,15.65
2023-05-17T05:52:27.974Z,16.01
2023-05-17T05:56:40.829Z,16.20
2023-05-17T06:00:57.532Z,16.34
2023-05-17T06:05:10.024Z,16.62
2023-05-17T06:09:22.309Z,16.71
2023-05-17T06:13:37.243Z,17.06
2023-05-17T06:17:49.803Z,17.20
2023-05-17T06:22:02.380Z,17.08
2023-05-17T06:26:14.843Z,17.18
2023-05-17T06:30:28.119Z,17.19
2023-05-17T06:34:40.712Z,17.55
2023-05-17T06:38:53.310Z,18.27
2023-05-17T06:43:05.783Z,18.67
2023-05-17T06:47:18.752Z,19.14
2023-05-17T06:51:31.914Z,19.18
2023-05-17T06:55:44.412Z,18.83
2023-05-17T06:59:57.032Z,19.20
2023-05-17T07:04:09.484Z,19.36
2023-05-17T07:08:22.076Z,19.40
2023-05-17T07:12:34.731Z,20.04
2023-05-17T07:16:48.271Z,19.40
2023-05-17T07:21:00.842Z,19.92
2023-05-17T07:25:13.588Z,20.39
2023-05-17T07:29:26.256Z,20.42
2023-05-17T07:33:38.870Z,21.34
2023-05-17T07:37:51.329Z,20.59
2023-05-17T07:42:05.442Z,20.75
2023-05-17T07:46:18.540Z,21.73
2023-05-17T07:50:31.449Z,22.12
2023-05-17T07:54:43.833Z,22.45
2023-05-17T07:58:56.414Z,21.91
2023-05-17T08:03:08.954Z,21.58
2023-05-17T08:07:21.404Z,23.64
2023-05-17T08:11:35.337Z,22.68
2023-05-17T08:15:50.080Z,22.16
2023-05-17T08:20:06.535Z,22.32
2023-05-17T08:24:19.422Z,22.03
2023-05-17T08:28:32.351Z,22.99
2023-05-17T08:32:45.685Z,23.49
2023-05-17T08:36:58.390Z,22.92
2023-05-17T08:41:11.068Z,22.79
2023-05-17T08:45:24.173Z,23.10
2023-05-17T08:49:38.311Z,23.36
2023-05-17T08:53:51.049Z,24.19
2023-05-17T08:58:06.264Z,23.52
2023-05-17T09:02:19.743Z,24.78
2023-05-17T09:06:33.700Z,24.37
2023-05-17T09:10:46.459Z,25.90
2023-05-17T09:15:14.544Z,25.71
2023-05-17T09:19:27.264Z,25.30
2023-05-17T09:23:41.447Z,23.52
2023-05-17T09:27:55.628Z,22.75
2023-05-17T09:32:18.983Z,23.95
2023-05-17T09:36:32.366Z,25.37
2023-05-17T09:40:46.738Z,25.38
2023-05-17T09:45:00.235Z,26.39
2023-05-17T09:49:13.810Z,25.80
2023-05-17T09:53:29.267Z,24.47
2023-05-17T09:57:41.944Z,25.29
2023-05-17T10:01:55.321Z,25.43
2023-05-17T10:06:13.416Z,25.82
2023-05-17T10:10:33.410Z,23.66
2023-05-17T10:14:46.265Z,22.79
2023-05-17T10:18:58.957Z,24.29
2023-05-17T10:23:17.136Z,24.60
2023-05-17T10:27:31.191Z,25.13
2023-05-17T10:31:45.670Z,23.66
2023-05-17T10:35:59.576Z,24.03
2023-05-17T10:40:15.540Z,23.77
2023-05-17T10:44:30.835Z,24.13
2023-05-17T10:48:45.029Z,24.66
2023-05-17T10:52:59.214Z,25.62
2023-05-17T11:02:07.842Z,25.12
2023-05-17T11:06:24.570Z,26.24
2023-05-17T11:10:37.850Z,25.07
2023-05-17T11:14:53.825Z,24.87
2023-05-17T11:19:11.770Z,25.92
2023-05-17T11:23:25.139Z,25.08
2023-05-17T11:27:48.051Z,25.52
2023-05-17T11:32:07.472Z,25.86
2023-05-17T11:36:22.254Z,25.31
2023-05-17T11:40:34.901Z,24.76
2023-05-17T11:44:47.987Z,24.25
2023-05-17T11:49:02.001Z,24.38
2023-05-17T11:53:15.910Z,23.62
2023-05-17T11:57:32.831Z,25.22
2023-05-17T12:01:50.025Z,23.96
2023-05-17T12:06:06.085Z,23.96
2023-05-17T12:10:18.882Z,24.17
2023-05-17T12:14:31.380Z,23.56
2023-05-17T12:18:46.708Z,22.81
2023-05-17T12:22:59.271Z,22.48
2023-05-17T12:27:12.107Z,22.26
2023-05-17T12:31:29.931Z,21.98
2023-05-17T12:35:42.630Z,22.27
2023-05-17T12:39:56.461Z,22.44
2023-05-17T12:48:26.922Z,21.91
2023-05-17T12:52:41.472Z,22.19
2023-05-17T12:56:54.416Z,22.09
2023-05-17T13:01:07.775Z,21.48
2023-05-17T13:05:23.285Z,21.85
2023-05-17T13:09:48.291Z,21.98
2023-05-17T13:14:00.813Z,22.29
2023-05-17T13:18:16.347Z,21.56
2023-05-17T13:22:28.847Z,21.51
2023-05-17T13:26:41.378Z,21.15
2023-05-17T13:30:53.855Z,19.65
2023-05-17T13:35:06.898Z,19.09
2023-05-17T13:39:20.039Z,18.93
2023-05-17T13:43:32.418Z,18.22
2023-05-17T13:47:45.070Z,18.11
2023-05-17T13:51:57.980Z,18.14
2023-05-17T13:56:10.437Z,18.30
2023-05-17T14:00:23.197Z,18.62
2023-05-17T14:04:35.655Z,19.26
2023-05-17T14:08:48.193Z,19.50
2023-05-17T14:13:00.691Z,19.62
2023-05-17T14:17:13.139Z,19.53
2023-05-17T14:21:25.547Z,19.67
2023-05-17T14:25:38.062Z,19.38
2023-05-17T14:29:50.449Z,18.69
2023-05-17T14:34:04.228Z,18.52
2023-05-17T14:38:17.005Z,18.43
2023-05-17T14:42:31.105Z,18.40
2023-05-17T14:46:43.473Z,18.62
2023-05-17T14:50:55.995Z,18.68
2023-05-17T14:55:09.620Z,19.08
2023-05-17T14:59:22.300Z,19.47
2023-05-17T15:03:35.307Z,19.86
2023-05-17T15:07:47.942Z,19.64
2023-05-17T15:12:01.820Z,19.78
2023-05-17T15:16:14.278Z,19.61
2023-05-17T15:20:26.765Z,19.45
2023-05-17T15:24:39.910Z,19.12
2023-05-17T15:28:52.451Z,19.52
2023-05-17T15:33:05.115Z,19.67
2023-05-17T15:37:17.643Z,20.32
2023-05-17T15:41:31.987Z,20.23
2023-05-17T15:45:44.444Z,19.97
2023-05-17T15:49:58.397Z,19.76
2023-05-17T15:54:11.004Z,19.59
2023-05-17T15:58:25.903Z,18.91
2023-05-17T16:02:38.398Z,19.04
2023-05-17T16:06:50.963Z,18.90
2023-05-17T16:11:03.754Z,18.76
2023-05-17T16:15:16.521Z,18.99
2023-05-17T16:19:30.866Z,19.20
2023-05-17T16:23:43.820Z,19.08
2023-05-17T16:27:56.199Z,18.85
2023-05-17T16:32:08.700Z,18.78
2023-05-17T16:36:22.957Z,18.55
2023-05-17T16:40:35.882Z,18.59
2023-05-17T16:44:48.326Z,18.53
2023-05-17T16:49:00.767Z,18.45
2023-05-17T16:53:13.185Z,18.48
2023-05-17T16:57:25.692Z,18.32
2023-05-17T17:05:51.018Z,18.50
2023-05-17T17:10:03.870Z,18.65
2023-05-17T17:14:16.599Z,18.84
2023-05-17T17:18:29.725Z,18.66
2023-05-17T17:22:42.344Z,18.51
2023-05-17T17:26:54.823Z,18.21
2023-05-17T17:35:20.094Z,18.12
2023-05-17T17:39:32.512Z,17.95
2023-05-17T17:43:47.272Z,17.88
2023-05-17T17:47:59.741Z,17.82
2023-05-17T17:52:16.470Z,17.75
2023-05-17T17:56:29.008Z,17.58
2023-05-17T18:00:41.876Z,17.50
2023-05-17T18:04:55.507Z,17.37
2023-05-17T18:09:08.604Z,17.23
2023-05-17T18:13:21.125Z,17.20
2023-05-17T18:17:34.868Z,17.24
2023-05-17T18:21:47.480Z,17.23
2023-05-17T18:25:59.956Z,17.17
2023-05-17T18:30:12.852Z,17.16
2023-05-17T18:34:25.870Z,17.29
2023-05-17T18:38:38.389Z,17.16
2023-05-17T18:42:50.999Z,17.05
2023-05-17T18:47:03.877Z,16.85
2023-05-17T18:51:16.362Z,16.77
2023-05-17T18:55:28.813Z,17.00
2023-05-17T18:59:41.841Z,16.84
2023-05-17T19:03:57.620Z,16.71
2023-05-17T19:08:09.999Z,16.72
2023-05-17T19:12:23.613Z,16.63
2023-05-17T19:16:36.447Z,16.53
2023-05-17T19:20:49.072Z,16.46
2023-05-17T19:25:01.538Z,16.27
2023-05-17T19:29:13.938Z,16.21
2023-05-17T19:33:26.839Z,16.17
2023-05-17T19:37:39.332Z,15.97
2023-05-17T19:41:51.908Z,15.93
2023-05-17T19:46:04.439Z,15.88
2023-05-17T19:50:17.182Z,16.09
2023-05-17T19:54:30.254Z,15.97
2023-05-17T19:58:42.667Z,15.88
2023-05-17T20:02:55.250Z,15.84
2023-05-17T20:07:07.906Z,15.77
2023-05-17T20:11:20.438Z,15.79
2023-05-17T20:15:33.020Z,15.69
2023-05-17T20:19:45.464Z,15.52
2023-05-17T20:24:01.708Z,15.57
2023-05-17T20:28:14.401Z,15.57
2023-05-17T20:32:26.965Z,15.58
2023-05-17T20:36:39.369Z,15.54
2023-05-17T20:40:52.451Z,15.59
2023-05-17T20:45:05.732Z,15.53
2023-05-17T20:49:18.415Z,15.40
2023-05-17T20:53:31.278Z,15.26
2023-05-17T20:57:44.805Z,15.41
2023-05-17T21:01:57.956Z,15.41
2023-05-17T21:06:11.356Z,15.42
2023-05-17T21:10:23.787Z,15.42
2023-05-17T21:14:36.189Z,15.35
2023-05-17T21:18:48.614Z,15.33
2023-05-17T21:23:01.023Z,15.29
2023-05-17T21:27:13.481Z,15.30
2023-05-17T21:31:28.407Z,15.25
2023-05-17T21:35:40.834Z,15.23
2023-05-17T21:39:53.276Z,15.13
2023-05-17T21:44:05.908Z,15.15
2023-05-17T21:48:18.227Z,15.03
2023-05-17T21:52:30.773Z,15.17
2023-05-17T21:56:43.122Z,15.16
2023-05-17T22:00:55.502Z,15.15
2023-05-17T22:05:08.246Z,14.99
2023-05-17T22:09:20.677Z,14.86
2023-05-17T22:13:33.223Z,14.75
2023-05-17T22:17:51.882Z,14.85
2023-05-17T22:22:05.484Z,14.92
2023-05-17T22:26:17.789Z,14.78
2023-05-17T22:30:30.388Z,14.59
2023-05-17T22:34:43.378Z,14.46
2023-05-17T22:38:56.975Z,14.51
2023-05-17T22:43:10.910Z,14.59
2023-05-17T22:47:24.440Z,14.62
2023-05-17T22:51:37.191Z,14.44
2023-05-17T22:55:50.137Z,14.36
2023-05-17T23:00:05.278Z,14.26
2023-05-17T23:04:17.771Z,14.29
2023-05-17T23:08:30.623Z,14.16
2023-05-17T23:12:43.064Z,14.43
2023-05-17T23:16:55.478Z,14.48
2023-05-17T23:21:08.514Z,14.25
2023-05-17T23:25:21.476Z,14.20
2023-05-17T23:29:34.089Z,14.20
2023-05-17T23:33:46.502Z,14.35
2023-05-17T23:38:00.692Z,14.33
2023-05-17T23:42:13.439Z,14.31
2023-05-17T23:46:25.999Z,14.20
2023-05-17T23:50:39.499Z,14.14
2023-05-17T23:54:52.253Z,14.01
2023-05-17T23:59:04.732Z,13.84
